Time;durP1;ratioP1;P1;durP2;ratioP2;P2;SDS_P1;SDS_P2;PMS_P1;PMS_P2;Temp;Humidity;BMP_temperature;BMP_pressure;BME280_temperature;BME280_humidity;BME280_pressure;Samples;Min_cycle;Max_cycle;Signal;HPM_P1;HPM_P2
2022/08/11 00:00:33;;;;;;;12.30;2.83;;;;;;;;;;5053699;28;20021;-71
2022/08/11 00:03:03;;;;;;;5.05;2.05;;;;;;;;;;5053446;28;20025;-71
2022/08/11 00:05:29;;;;;;;5.72;2.75;;;;;;;;;;5054086;28;20497;-70
2022/08/11 00:07:56;;;;;;;7.55;2.72;;;;;;;;;;5055494;28;20393;-71
2022/08/11 00:10:23;;;;;;;7.68;2.53;;;;;;;;;;5053280;28;20036;-71
2022/08/11 00:12:55;;;;;;;8.35;2.65;;;;;;;;;;5053431;28;20078;-72
2022/08/11 00:15:21;;;;;;;5.95;2.20;;;;;;;;;;5053164;28;20021;-71
2022/08/11 00:17:48;;;;;;;6.07;2.63;;;;;;;;;;5053233;28;20079;-71
2022/08/11 00:20:15;;;;;;;10.85;2.75;;;;;;;;;;5053094;28;20063;-70
2022/08/11 00:22:42;;;;;;;7.88;2.55;;;;;;;;;;5053177;28;20100;-71
2022/08/11 00:25:12;;;;;;;9.52;2.45;;;;;;;;;;5051974;28;20128;-71
2022/08/11 00:27:39;;;;;;;7.15;2.55;;;;;;;;;;5054251;28;20052;-71
2022/08/11 00:30:06;;;;;;;6.40;2.47;;;;;;;;;;5055627;28;20552;-72
2022/08/11 00:32:32;;;;;;;5.78;2.70;;;;;;;;;;5052795;28;20111;-70
2022/08/11 00:34:59;;;;;;;10.48;2.60;;;;;;;;;;5052683;28;20025;-71
2022/08/11 00:37:26;;;;;;;8.13;2.75;;;;;;;;;;5052458;28;20052;-71
2022/08/11 00:39:53;;;;;;;5.80;2.65;;;;;;;;;;5053603;28;20458;-72
2022/08/11 00:42:37;;;;;;;7.10;2.97;;;;;;;;;;5058633;28;20509;-71
2022/08/11 00:45:20;;;;;;;9.13;2.60;;;;;;;;;;5053954;28;20040;-71
2022/08/11 00:47:54;;;;;;;10.25;2.67;;;;;;;;;;5056538;28;20044;-71
2022/08/11 00:50:39;;;;;;;7.93;2.90;;;;;;;;;;5056259;28;20024;-71
2022/08/11 00:53:12;;;;;;;10.43;2.55;;;;;;;;;;5052718;28;20316;-71
2022/08/11 00:55:54;;;;;;;5.78;2.60;;;;;;;;;;5051445;28;20029;-72
2022/08/11 00:58:44;;;;;;;5.07;2.30;;;;;;;;;;5052607;28;20474;-71
2022/08/11 01:01:16;;;;;;;8.63;3.22;;;;;;;;;;5047190;28;20033;-73
2022/08/11 01:04:20;;;;;;;10.00;2.88;;;;;;;;;;5051104;28;20017;-72
2022/08/11 01:06:49;;;;;;;6.22;2.70;;;;;;;;;;5010133;28;20085;-71
2022/08/11 01:09:21;;;;;;;13.75;3.15;;;;;;;;;;5009526;28;20463;-71
2022/08/11 01:11:49;;;;;;;8.68;2.65;;;;;;;;;;5032485;28;20056;-72
2022/08/11 01:14:29;;;;;;;6.47;3.00;;;;;;;;;;5052485;28;20021;-71
2022/08/11 01:17:04;;;;;;;8.27;2.88;;;;;;;;;;5052148;28;20024;-70
2022/08/11 01:19:36;;;;;;;4.32;2.50;;;;;;;;;;5051974;28;20079;-70
2022/08/11 01:22:05;;;;;;;7.30;2.63;;;;;;;;;;5051906;28;20584;-70
2022/08/11 01:24:40;;;;;;;8.75;3.03;;;;;;;;;;5052476;28;20049;-70
2022/08/11 01:27:12;;;;;;;8.75;2.42;;;;;;;;;;5050879;28;20633;-70
2022/08/11 01:29:50;;;;;;;6.75;2.90;;;;;;;;;;5053539;28;20033;-70
2022/08/11 01:32:35;;;;;;;9.20;2.80;;;;;;;;;;5055978;28;20102;-71
2022/08/11 01:35:00;;;;;;;7.70;2.40;;;;;;;;;;5054604;28;20051;-70
2022/08/11 01:37:27;;;;;;;9.55;2.88;;;;;;;;;;5052019;28;20445;-71
2022/08/11 01:40:11;;;;;;;10.07;2.90;;;;;;;;;;5055235;28;20043;-72
2022/08/11 01:45:24;;;;;;;6.30;2.88;;;;;;;;;;5056456;28;20052;-72
2022/08/11 01:48:02;;;;;;;5.93;2.55;;;;;;;;;;5056381;28;20033;-71
2022/08/11 01:50:47;;;;;;;7.20;2.38;;;;;;;;;;5055907;28;20552;-72
2022/08/11 01:53:33;;;;;;;6.68;2.38;;;;;;;;;;5054926;28;20036;-72
2022/08/11 01:56:10;;;;;;;6.53;2.38;;;;;;;;;;5054460;28;20495;-72
2022/08/11 01:58:35;;;;;;;7.57;2.67;;;;;;;;;;5052868;28;20104;-71
2022/08/11 02:01:10;;;;;;;8.60;3.25;;;;;;;;;;5052559;28;20108;-71
2022/08/11 02:03:43;;;;;;;6.32;2.40;;;;;;;;;;5052325;28;20025;-71
2022/08/11 02:09:26;;;;;;;5.13;2.95;;;;;;;;;;5052145;28;20035;-72
2022/08/11 02:11:55;;;;;;;8.48;2.50;;;;;;;;;;5051391;28;20032;-72
2022/08/11 02:14:26;;;;;;;12.90;2.90;;;;;;;;;;5057478;28;20025;-72
2022/08/11 02:17:02;;;;;;;11.20;3.30;;;;;;;;;;5071246;28;20462;-72
2022/08/11 02:25:40;;;;;;;8.32;3.53;;;;;;;;;;5073306;28;20024;-71
2022/08/11 02:28:12;;;;;;;6.78;2.95;;;;;;;;;;5076180;28;20040;-71
2022/08/11 02:33:21;;;;;;;10.65;2.70;;;;;;;;;;5074129;28;20021;-71
2022/08/11 02:33:36;;;;;;;6.97;3.15;;;;;;;;;;5071582;28;20385;-71
2022/08/11 02:36:20;;;;;;;4.82;2.42;;;;;;;;;;5071037;28;20449;-71
2022/08/11 02:39:05;;;;;;;7.03;2.72;;;;;;;;;;5071214;28;20021;-71
2022/08/11 02:44:34;;;;;;;6.38;2.80;;;;;;;;;;5071113;28;20119;-71
2022/08/11 02:47:14;;;;;;;6.20;2.55;;;;;;;;;;5072312;28;20060;-71
2022/08/11 02:49:55;;;;;;;6.25;2.95;;;;;;;;;;5074828;28;20037;-71
2022/08/11 02:52:35;;;;;;;5.97;2.72;;;;;;;;;;5074782;28;20028;-72
2022/08/11 02:55:08;;;;;;;4.82;2.78;;;;;;;;;;5074826;28;20032;-72
2022/08/11 02:57:40;;;;;;;9.30;2.90;;;;;;;;;;5075492;28;20094;-70
2022/08/11 03:00:11;;;;;;;9.55;2.53;;;;;;;;;;5075124;28;20074;-70
2022/08/11 03:02:45;;;;;;;5.45;2.50;;;;;;;;;;5074633;28;20024;-70
2022/08/11 03:05:20;;;;;;;5.30;2.53;;;;;;;;;;5074616;28;20107;-70
2022/08/11 03:07:46;;;;;;;;;;;;;;;;;;5075053;28;20558;-72
2022/08/11 03:10:24;;;;;;;11.65;3.20;;;;;;;;;;5074192;28;19912;-71
2022/08/11 03:19:14;;;;;;;5.07;3.08;;;;;;;;;;5056843;28;20081;-72
2022/08/11 03:21:58;;;;;;;8.88;2.55;;;;;;;;;;5080577;28;20020;-72
2022/08/11 03:24:33;;;;;;;6.53;2.95;;;;;;;;;;5077307;28;20020;-70
2022/08/11 03:27:25;;;;;;;8.02;3.05;;;;;;;;;;5074337;28;20020;-71
2022/08/11 03:30:12;;;;;;;10.65;3.40;;;;;;;;;;5074353;28;20146;-71
2022/08/11 03:34:00;;;;;;;11.90;3.17;;;;;;;;;;5074256;28;20032;-71
2022/08/11 03:35:37;;;;;;;7.55;3.05;;;;;;;;;;5073568;28;20044;-72
2022/08/11 03:38:07;;;;;;;10.90;3.50;;;;;;;;;;5074276;28;20533;-72
2022/08/11 03:43:44;;;;;;;12.38;6.10;;;;;;;;;;5075423;28;20074;-72
2022/08/11 03:46:11;;;;;;;10.48;3.53;;;;;;;;;;5052448;28;20037;-70
2022/08/11 03:48:38;;;;;;;11.70;3.28;;;;;;;;;;5073883;28;20021;-71
2022/08/11 03:51:23;;;;;;;6.82;3.10;;;;;;;;;;5073672;28;20024;-71
2022/08/11 03:53:55;;;;;;;6.45;3.13;;;;;;;;;;5074888;28;20393;-73
2022/08/11 03:56:41;;;;;;;5.03;2.97;;;;;;;;;;5073235;28;20020;-72
2022/08/11 03:59:10;;;;;;;11.48;3.03;;;;;;;;;;5073884;28;20027;-72
2022/08/11 04:01:52;;;;;;;9.50;3.42;;;;;;;;;;5073715;28;20450;-72
2022/08/11 04:04:44;;;;;;;5.32;3.00;;;;;;;;;;5084460;28;20036;-71
2022/08/11 04:07:33;;;;;;;6.90;3.13;;;;;;;;;;5078890;28;20040;-72
2022/08/11 04:10:14;;;;;;;7.65;3.13;;;;;;;;;;5078525;22;20082;-75
2022/08/11 04:12:59;;;;;;;12.10;4.25;;;;;;;;;;5015751;28;20038;-77
2022/08/11 04:15:59;;;;;;;10.40;3.50;;;;;;;;;;5014444;28;20056;-75
2022/08/11 04:18:42;;;;;;;13.50;3.58;;;;;;;;;;5014113;28;20041;-74
2022/08/11 04:21:07;;;;;;;9.77;3.28;;;;;;;;;;5013993;28;20080;-76
2022/08/11 04:23:52;;;;;;;12.90;3.70;;;;;;;;;;5014161;28;20034;-75
2022/08/11 04:26:36;;;;;;;10.80;3.88;;;;;;;;;;5014342;28;20026;-75
2022/08/11 04:29:24;;;;;;;7.35;3.30;;;;;;;;;;4996488;28;20398;-76
2022/08/11 04:31:50;;;;;;;9.18;3.50;;;;;;;;;;5013994;28;20037;-76
2022/08/11 04:34:16;;;;;;;7.65;3.70;;;;;;;;;;5014777;28;20045;-77
2022/08/11 04:39:39;;;;;;;9.00;3.63;;;;;;;;;;5016304;28;20041;-75
2022/08/11 04:45:12;;;;;;;9.32;3.65;;;;;;;;;;5013984;28;20061;-77
2022/08/11 05:02:54;;;;;;;10.70;4.47;;;;;;;;;;5032906;28;20029;-73
2022/08/11 05:05:30;;;;;;;11.90;4.05;;;;;;;;;;5009975;28;20041;-75
2022/08/11 05:07:58;;;;;;;9.35;3.60;;;;;;;;;;5025893;28;20042;-77
2022/08/11 05:10:47;;;;;;;10.43;3.90;;;;;;;;;;5014632;28;20095;-77
2022/08/11 05:35:54;;;;;;;14.93;7.70;;;;;;;;;;5016897;28;20060;-80
2022/08/11 05:57:59;;;;;;;15.43;7.03;;;;;;;;;;5014858;28;20037;-77
2022/08/11 06:00:25;;;;;;;16.83;7.43;;;;;;;;;;5018332;28;20451;-77
2022/08/11 06:02:57;;;;;;;11.00;5.72;;;;;;;;;;5016705;28;20018;-77
2022/08/11 06:05:25;;;;;;;10.95;6.22;;;;;;;;;;5015257;28;20032;-78
2022/08/11 06:07:53;;;;;;;14.45;8.30;;;;;;;;;;5016622;28;20053;-76
2022/08/11 06:10:32;;;;;;;10.05;6.57;;;;;;;;;;5017624;28;20108;-77
2022/08/11 06:12:59;;;;;;;15.07;7.40;;;;;;;;;;5003875;28;20048;-78
2022/08/11 06:15:26;;;;;;;19.90;11.27;;;;;;;;;;5028235;28;20022;-78
2022/08/11 06:17:54;;;;;;;20.60;7.75;;;;;;;;;;5001321;28;20026;-75
2022/08/11 06:20:21;;;;;;;25.13;11.57;;;;;;;;;;5015588;28;20201;-76
2022/08/11 06:22:48;;;;;;;18.08;7.85;;;;;;;;;;5017393;28;20018;-74
2022/08/11 06:25:15;;;;;;;21.30;7.43;;;;;;;;;;5017694;28;20026;-75
2022/08/11 06:27:42;;;;;;;12.68;5.38;;;;;;;;;;5018149;28;20037;-76
2022/08/11 06:30:14;;;;;;;14.65;5.60;;;;;;;;;;5018058;28;20034;-75
2022/08/11 06:32:43;;;;;;;10.20;5.18;;;;;;;;;;5017425;28;20030;-75
2022/08/11 06:35:15;;;;;;;13.15;6.28;;;;;;;;;;5018864;28;20434;-80
2022/08/11 06:38:16;;;;;;;6.63;4.03;;;;;;;;;;5023189;28;20463;-77
2022/08/11 06:43:57;;;;;;;15.93;6.60;;;;;;;;;;5023567;28;20410;-79
2022/08/11 06:46:27;;;;;;;15.65;7.40;;;;;;;;;;5007146;28;20045;-77
2022/08/11 06:48:54;;;;;;;11.80;4.90;;;;;;;;;;5021457;28;20097;-79
2022/08/11 06:51:20;;;;;;;10.27;4.75;;;;;;;;;;5018566;28;20036;-76
2022/08/11 06:53:48;;;;;;;13.35;4.35;;;;;;;;;;5018067;28;20479;-75
2022/08/11 07:02:05;;;;;;;11.27;3.60;;;;;;;;;;5028627;28;20060;-77
2022/08/11 07:04:30;;;;;;;;;;;;;;;;;;5025854;28;20042;-77
2022/08/11 07:15:50;;;;;;;15.32;3.28;;;;;;;;;;5015788;28;20381;-78
2022/08/11 07:29:26;;;;;;;7.18;3.58;;;;;;;;;;5035542;28;20352;-76
2022/08/11 07:31:52;;;;;;;11.50;4.60;;;;;;;;;;5022256;28;20033;-77
2022/08/11 07:34:18;;;;;;;6.18;2.97;;;;;;;;;;5015926;28;20034;-76
2022/08/11 07:36:52;;;;;;;8.52;3.10;;;;;;;;;;5016692;28;20037;-77
2022/08/11 07:39:20;;;;;;;7.60;2.75;;;;;;;;;;5000684;28;20075;-77
2022/08/11 07:41:47;;;;;;;14.07;4.85;;;;;;;;;;5028193;28;20029;-77
2022/08/11 07:44:15;;;;;;;15.93;4.22;;;;;;;;;;5006430;28;20036;-76
2022/08/11 07:52:32;;;;;;;14.07;4.80;;;;;;;;;;5017719;28;20457;-79
2022/08/11 07:54:58;;;;;;;;;;;;;;;;;;4998363;28;20114;-78
2022/08/11 08:19:25;;;;;;;9.90;2.45;;;;;;;;;;5015233;28;20083;-76
2022/08/11 08:21:52;;;;;;;10.07;2.88;;;;;;;;;;5016240;28;20033;-76
2022/08/11 08:24:19;;;;;;;14.57;3.03;;;;;;;;;;5014964;28;20030;-76
2022/08/11 08:26:58;;;;;;;15.07;2.83;;;;;;;;;;5015399;28;20025;-76
2022/08/11 08:32:10;;;;;;;7.35;3.45;;;;;;;;;;5014334;28;20040;-77
2022/08/11 08:34:37;;;;;;;11.23;2.78;;;;;;;;;;5014374;28;20037;-77
2022/08/11 08:37:04;;;;;;;6.90;3.00;;;;;;;;;;5013578;28;21017;-76
2022/08/11 08:39:32;;;;;;;10.55;3.17;;;;;;;;;;5015250;28;20029;-78
2022/08/11 08:41:58;;;;;;;13.70;2.83;;;;;;;;;;4997925;28;20026;-78
2022/08/11 08:44:25;;;;;;;9.73;2.60;;;;;;;;;;5014625;28;20026;-78
2022/08/11 08:46:58;;;;;;;14.43;3.20;;;;;;;;;;5033840;28;20042;-76
2022/08/11 08:49:31;;;;;;;9.15;2.90;;;;;;;;;;5014220;28;20034;-77
2022/08/11 08:52:00;;;;;;;7.03;2.95;;;;;;;;;;5014443;28;20034;-76
2022/08/11 08:54:35;;;;;;;15.25;2.80;;;;;;;;;;5014093;28;20113;-75
2022/08/11 08:57:04;;;;;;;4.93;2.70;;;;;;;;;;5013851;28;20498;-78
2022/08/11 08:59:31;;;;;;;10.75;2.63;;;;;;;;;;5013845;28;20018;-77
2022/08/11 09:01:59;;;;;;;6.57;2.33;;;;;;;;;;5013582;28;20562;-75
2022/08/11 09:04:25;;;;;;;3.67;2.00;;;;;;;;;;4996231;28;20029;-77
2022/08/11 09:06:52;;;;;;;4.22;2.38;;;;;;;;;;4995468;28;20184;-75
2022/08/11 09:09:19;;;;;;;3.70;2.03;;;;;;;;;;5012207;28;20030;-76
2022/08/11 09:11:50;;;;;;;11.30;2.53;;;;;;;;;;5012980;28;20029;-76
2022/08/11 09:14:18;;;;;;;5.80;2.40;;;;;;;;;;5013215;28;20024;-76
2022/08/11 09:16:45;;;;;;;7.22;2.30;;;;;;;;;;5013018;28;20033;-77
2022/08/11 09:19:13;;;;;;;7.40;2.35;;;;;;;;;;5013544;28;20018;-76
2022/08/11 09:27:21;;;;;;;5.15;1.77;;;;;;;;;;5014034;28;20045;-77
2022/08/11 09:29:47;;;;;;;3.00;1.60;;;;;;;;;;5014665;28;20029;-76
2022/08/11 09:32:14;;;;;;;8.65;2.03;;;;;;;;;;5018831;28;20077;-76
2022/08/11 09:34:40;;;;;;;5.22;1.60;;;;;;;;;;5016887;28;20025;-76
2022/08/11 09:45:23;;;;;;;4.97;1.88;;;;;;;;;;5016908;28;20434;-75
2022/08/11 09:47:49;;;;;;;6.18;2.05;;;;;;;;;;5022024;28;20041;-76
2022/08/11 09:50:16;;;;;;;5.88;2.50;;;;;;;;;;5020189;28;20034;-76
2022/08/11 09:52:44;;;;;;;11.82;1.95;;;;;;;;;;5015262;28;20076;-75
2022/08/11 09:55:11;;;;;;;4.03;2.00;;;;;;;;;;5032379;28;20026;-75
2022/08/11 10:00:30;;;;;;;5.35;2.80;;;;;;;;;;5014833;28;20455;-76
2022/08/11 10:02:56;;;;;;;4.72;1.80;;;;;;;;;;5015776;28;20026;-77
2022/08/11 10:08:11;;;;;;;6.72;1.50;;;;;;;;;;5014550;28;20089;-75
2022/08/11 10:10:38;;;;;;;4.47;1.77;;;;;;;;;;5043673;22;20083;-73
2022/08/11 10:13:14;;;;;;;7.38;2.53;;;;;;;;;;5054655;28;20047;-74
2022/08/11 10:15:42;;;;;;;8.68;4.65;;;;;;;;;;5035830;28;20473;-73
2022/08/11 10:20:59;;;;;;;7.05;1.88;;;;;;;;;;5053402;28;20083;-73
2022/08/11 10:28:56;;;;;;;9.52;1.70;;;;;;;;;;5051057;28;20035;-74
2022/08/11 10:34:08;;;;;;;6.55;2.45;;;;;;;;;;5050383;28;20048;-73
2022/08/11 10:36:48;;;;;;;9.88;2.45;;;;;;;;;;5049571;28;20076;-73
2022/08/11 10:39:16;;;;;;;5.45;2.00;;;;;;;;;;5048869;28;20032;-73
2022/08/11 10:44:29;;;;;;;10.95;2.05;;;;;;;;;;5046734;28;20086;-73
2022/08/11 10:49:40;;;;;;;;;;;;;;;;;;5051034;28;20055;-72
2022/08/11 11:00:23;;;;;;;7.80;3.00;;;;;;;;;;5051438;28;20055;-73
2022/08/11 11:02:50;;;;;;;14.20;3.78;;;;;;;;;;5047927;28;20548;-73
2022/08/11 11:05:26;;;;;;;5.55;1.92;;;;;;;;;;5049521;28;20063;-73
2022/08/11 11:07:55;;;;;;;12.05;2.50;;;;;;;;;;5050912;28;20025;-73
2022/08/11 11:10:21;;;;;;;5.75;1.98;;;;;;;;;;5053588;28;20434;-75
2022/08/11 11:18:22;;;;;;;11.82;1.88;;;;;;;;;;5057419;28;20035;-72
2022/08/11 11:20:55;;;;;;;7.38;1.70;;;;;;;;;;5054730;28;20025;-75
2022/08/11 11:23:28;;;;;;;4.20;1.55;;;;;;;;;;5055039;28;20013;-74
2022/08/11 11:26:11;;;;;;;4.15;1.50;;;;;;;;;;5037627;28;20029;-75
2022/08/11 11:28:46;;;;;;;4.72;2.05;;;;;;;;;;5055447;28;20025;-72
2022/08/11 11:31:33;;;;;;;6.78;1.73;;;;;;;;;;5055841;28;20025;-74
2022/08/11 11:34:18;;;;;;;7.65;1.80;;;;;;;;;;5056066;28;20391;-73
2022/08/11 11:36:44;;;;;;;;;;;;;;;;;;5055332;28;20040;-74
2022/08/11 11:39:10;;;;;;;8.68;1.95;;;;;;;;;;5055173;28;19912;-74
2022/08/11 11:41:36;;;;;;;9.73;2.05;;;;;;;;;;5052101;28;20025;-74
2022/08/11 11:44:03;;;;;;;6.13;1.52;;;;;;;;;;5053055;28;20028;-73
2022/08/11 11:46:29;;;;;;;4.40;1.85;;;;;;;;;;5037133;28;20518;-74
2022/08/11 11:48:56;;;;;;;5.95;1.80;;;;;;;;;;5056020;28;20036;-72
2022/08/11 11:51:22;;;;;;;4.10;2.03;;;;;;;;;;5055278;28;20131;-74
2022/08/11 11:53:49;;;;;;;6.72;2.35;;;;;;;;;;5055451;28;20033;-74
2022/08/11 11:56:15;;;;;;;5.10;1.75;;;;;;;;;;5040154;28;20064;-74
2022/08/11 12:01:27;;;;;;;7.40;2.10;;;;;;;;;;5060726;28;20040;-74
2022/08/11 12:03:54;;;;;;;6.20;2.45;;;;;;;;;;5064990;28;20496;-74
2022/08/11 12:06:22;;;;;;;4.95;2.13;;;;;;;;;;5037720;28;20048;-71
2022/08/11 12:08:49;;;;;;;9.85;2.40;;;;;;;;;;5042176;28;20051;-73
2022/08/11 12:14:02;;;;;;;11.07;3.45;;;;;;;;;;5037504;28;20056;-73
2022/08/11 12:16:28;;;;;;;11.60;2.70;;;;;;;;;;5039535;28;20032;-75
2022/08/11 12:19:01;;;;;;;6.60;3.35;;;;;;;;;;5024957;28;20029;-75
2022/08/11 12:21:28;;;;;;;5.43;2.20;;;;;;;;;;5037494;28;20025;-73
2022/08/11 12:29:26;;;;;;;6.15;2.50;;;;;;;;;;5034982;28;20044;-73
2022/08/11 12:31:53;;;;;;;6.40;2.60;;;;;;;;;;5033934;28;20022;-73
2022/08/11 12:34:19;;;;;;;4.05;2.25;;;;;;;;;;5034017;28;20033;-73
2022/08/11 12:36:58;;;;;;;4.78;1.90;;;;;;;;;;5033882;28;20030;-74
2022/08/11 12:45:28;;;;;;;6.50;1.48;;;;;;;;;;4999163;28;20027;-73
2022/08/11 12:53:32;;;;;;;2.45;1.17;;;;;;;;;;5038280;28;20044;-74
2022/08/11 12:58:49;;;;;;;2.53;1.30;;;;;;;;;;5037219;28;20060;-73
2022/08/11 13:06:46;;;;;;;5.53;1.08;;;;;;;;;;5035773;28;20048;-74
2022/08/11 13:09:12;;;;;;;7.07;1.17;;;;;;;;;;5034085;28;20037;-74
2022/08/11 13:14:27;;;;;;;5.38;1.67;;;;;;;;;;5036861;28;20040;-73
2022/08/11 13:19:41;;;;;;;2.60;1.20;;;;;;;;;;5046329;28;20028;-72
2022/08/11 13:22:07;;;;;;;5.15;1.20;;;;;;;;;;5035784;28;20033;-73
2022/08/11 13:24:33;;;;;;;2.85;1.40;;;;;;;;;;5031475;28;20025;-73
2022/08/11 13:27:00;;;;;;;2.28;1.13;;;;;;;;;;5032505;28;20025;-74
2022/08/11 13:29:27;;;;;;;14.73;1.30;;;;;;;;;;5032491;28;20359;-74
2022/08/11 13:31:55;;;;;;;5.82;1.30;;;;;;;;;;5033508;28;20025;-74
2022/08/11 13:34:22;;;;;;;1.50;1.20;;;;;;;;;;5036906;28;20041;-74
2022/08/11 13:36:50;;;;;;;6.43;1.38;;;;;;;;;;5034201;28;20486;-73
2022/08/11 13:39:17;;;;;;;5.07;1.20;;;;;;;;;;5017963;28;20032;-73
2022/08/11 13:41:44;;;;;;;2.97;1.20;;;;;;;;;;5035809;28;20079;-73
2022/08/11 13:44:12;;;;;;;5.75;1.20;;;;;;;;;;5034392;28;20022;-74
2022/08/11 13:46:38;;;;;;;1.88;1.00;;;;;;;;;;5045406;28;20048;-74
2022/08/11 13:49:07;;;;;;;4.35;0.85;;;;;;;;;;5053158;28;20451;-74
2022/08/11 13:51:34;;;;;;;4.72;1.45;;;;;;;;;;5051254;28;20028;-74
2022/08/11 13:54:03;;;;;;;1.33;1.05;;;;;;;;;;5052172;28;20511;-73
2022/08/11 13:56:30;;;;;;;3.67;1.45;;;;;;;;;;5050799;28;20120;-73
2022/08/11 13:58:57;;;;;;;9.80;1.70;;;;;;;;;;5052515;28;20060;-75
2022/08/11 14:01:33;;;;;;;8.05;1.60;;;;;;;;;;5052932;28;20512;-73
2022/08/11 14:04:08;;;;;;;5.30;1.17;;;;;;;;;;5034915;28;20029;-73
2022/08/11 14:06:35;;;;;;;2.72;1.40;;;;;;;;;;5051032;28;20021;-73
2022/08/11 14:09:03;;;;;;;4.32;1.27;;;;;;;;;;5051605;28;20029;-76
2022/08/11 14:14:18;;;;;;;4.53;1.20;;;;;;;;;;5053135;28;20131;-74
2022/08/11 14:16:46;;;;;;;7.95;1.10;;;;;;;;;;5052011;28;20092;-74
2022/08/11 14:19:13;;;;;;;4.22;1.13;;;;;;;;;;5052271;28;20056;-73
2022/08/11 14:24:26;;;;;;;3.70;1.20;;;;;;;;;;5052470;28;20098;-74
2022/08/11 14:26:53;;;;;;;5.22;1.23;;;;;;;;;;5052386;28;20029;-75
2022/08/11 14:29:21;;;;;;;3.25;1.05;;;;;;;;;;5051817;28;20055;-72
2022/08/11 14:31:49;;;;;;;6.88;3.67;;;;;;;;;;5033048;28;20049;-75
2022/08/11 14:34:19;;;;;;;1.90;1.05;;;;;;;;;;5033534;28;20466;-72
2022/08/11 14:36:49;;;;;;;5.10;1.00;;;;;;;;;;5051523;28;20024;-72
2022/08/11 14:39:17;;;;;;;8.43;0.90;;;;;;;;;;5051405;28;20089;-71
2022/08/11 14:47:19;;;;;;;5.00;1.30;;;;;;;;;;5061801;28;20040;-74
2022/08/11 14:49:45;;;;;;;3.10;1.30;;;;;;;;;;5043405;28;20025;-73
2022/08/11 14:52:15;;;;;;;4.53;1.20;;;;;;;;;;5059932;28;20089;-74
2022/08/11 14:57:27;;;;;;;2.70;1.20;;;;;;;;;;5056926;28;20040;-74
2022/08/11 14:59:54;;;;;;;6.85;1.35;;;;;;;;;;5056315;28;20120;-73
2022/08/11 15:05:06;;;;;;;6.53;1.10;;;;;;;;;;5056852;28;20539;-72
2022/08/11 15:07:32;;;;;;;5.13;1.20;;;;;;;;;;5055851;28;20025;-73
2022/08/11 15:09:59;;;;;;;5.00;1.30;;;;;;;;;;5038727;28;20078;-72
2022/08/11 15:12:25;;;;;;;4.55;2.60;;;;;;;;;;5056700;28;20107;-73
2022/08/11 15:17:37;;;;;;;10.70;1.60;;;;;;;;;;5055416;28;20043;-73
2022/08/11 15:25:35;;;;;;;8.60;1.90;;;;;;;;;;5055043;28;20090;-73
2022/08/11 15:39:25;;;;;;;3.88;1.40;;;;;;;;;;5056038;28;20540;-74
2022/08/11 15:47:34;;;;;;;4.93;1.30;;;;;;;;;;5064893;28;20051;-72
2022/08/11 15:50:01;;;;;;;9.95;2.00;;;;;;;;;;5073750;28;20021;-73
2022/08/11 15:52:30;;;;;;;4.45;1.52;;;;;;;;;;5046130;28;20086;-74
2022/08/11 15:55:01;;;;;;;9.95;1.73;;;;;;;;;;5054360;28;20509;-73
2022/08/11 16:05:43;;;;;;;6.72;1.60;;;;;;;;;;5055699;28;20032;-75
2022/08/11 16:08:10;;;;;;;8.15;1.48;;;;;;;;;;5055609;28;20029;-77
2022/08/11 16:10:36;;;;;;;4.00;1.75;;;;;;;;;;5077152;22;20049;31
2022/08/11 16:18:19;;;;;;;3.45;1.50;;;;;;;;;;5035051;28;20041;-76
2022/08/11 16:20:46;;;;;;;8.43;1.40;;;;;;;;;;5034916;28;20030;-75
2022/08/11 16:23:14;;;;;;;5.97;1.50;;;;;;;;;;5034490;28;20018;-73
2022/08/11 16:25:40;;;;;;;7.05;2.35;;;;;;;;;;5035112;28;20025;-77
2022/08/11 16:28:08;;;;;;;9.35;1.83;;;;;;;;;;5034379;28;20026;-76
2022/08/11 16:30:34;;;;;;;9.18;1.40;;;;;;;;;;5035421;28;20041;-75
2022/08/11 16:33:03;;;;;;;4.47;1.40;;;;;;;;;;5031905;28;20029;-73
2022/08/11 16:38:35;;;;;;;7.15;1.65;;;;;;;;;;5035157;28;20073;-76
2022/08/11 16:41:08;;;;;;;11.57;2.15;;;;;;;;;;5017087;28;20389;-74
2022/08/11 16:49:23;;;;;;;10.07;2.10;;;;;;;;;;5036426;28;20029;-77
2022/08/11 16:51:50;;;;;;;5.18;2.17;;;;;;;;;;5044713;28;20109;-77
2022/08/11 16:54:16;;;;;;;4.75;2.25;;;;;;;;;;5035943;28;20036;-77
2022/08/11 16:56:44;;;;;;;9.63;2.30;;;;;;;;;;5035851;28;20109;-79
2022/08/11 16:59:15;;;;;;;4.13;1.75;;;;;;;;;;5021147;28;20028;-78
2022/08/11 17:01:43;;;;;;;6.18;1.85;;;;;;;;;;5020162;28;20022;-75
2022/08/11 17:18:09;;;;;;;5.57;1.52;;;;;;;;;;5042471;28;20117;-76
2022/08/11 17:20:37;;;;;;;6.55;1.65;;;;;;;;;;5046723;28;20053;-77
2022/08/11 17:25:49;;;;;;;3.40;1.30;;;;;;;;;;5043217;28;20040;-74
2022/08/11 17:28:16;;;;;;;2.33;1.40;;;;;;;;;;5039554;28;20090;-76
2022/08/11 17:36:14;;;;;;;5.75;1.17;;;;;;;;;;5036568;28;20531;-75
2022/08/11 17:38:41;;;;;;;6.45;1.48;;;;;;;;;;5035147;28;20079;-75
2022/08/11 17:49:24;;;;;;;9.43;1.52;;;;;;;;;;5047988;28;20059;-76
2022/08/11 18:00:08;;;;;;;5.07;1.95;;;;;;;;;;5040480;28;20107;-76
2022/08/11 18:05:22;;;;;;;9.85;1.83;;;;;;;;;;5041792;28;20083;-76
